Time;durP1;ratioP1;P1;durP2;ratioP2;P2;SDS_P1;SDS_P2;PMS_P1;PMS_P2;Temp;Humidity;BMP_temperature;BMP_pressure;BME280_temperature;BME280_humidity;BME280_pressure;Samples;Min_cycle;Max_cycle;Signal;HPM_P1;HPM_P2
2021/10/20 00:01:37;;;;;;;63.53;16.23;;;;;;;;;;4975103;28;20225;-76
2021/10/20 00:04:06;;;;;;;44.07;16.00;;;;;;;;;;4979401;28;20624;-77
2021/10/20 00:06:34;;;;;;;119.17;18.83;;;;;;;;;;4989436;28;20236;-77
2021/10/20 00:09:01;;;;;;;166.60;21.97;;;;;;;;;;4989641;28;20677;-76
2021/10/20 00:11:28;;;;;;;25.43;13.33;;;;;;;;;;4989173;28;20315;-77
2021/10/20 00:13:56;;;;;;;72.67;19.27;;;;;;;;;;4980536;28;20305;-77
2021/10/20 00:16:24;;;;;;;60.93;18.07;;;;;;;;;;4987657;28;20255;-76
2021/10/20 00:18:51;;;;;;;46.07;16.30;;;;;;;;;;4980248;28;20778;-76
2021/10/20 00:21:24;;;;;;;80.53;16.33;;;;;;;;;;4979309;28;20229;-76
2021/10/20 00:23:51;;;;;;;74.30;16.43;;;;;;;;;;4975796;28;20285;-77
2021/10/20 00:26:18;;;;;;;162.50;20.83;;;;;;;;;;4991768;28;20233;-77
2021/10/20 00:28:45;;;;;;;99.77;18.33;;;;;;;;;;4980981;28;20910;-76
2021/10/20 00:31:12;;;;;;;49.23;15.50;;;;;;;;;;4987996;28;20312;-77
2021/10/20 00:33:40;;;;;;;52.17;15.57;;;;;;;;;;4987858;28;20244;-77
2021/10/20 00:36:07;;;;;;;154.73;20.50;;;;;;;;;;4991101;28;20251;-76
2021/10/20 00:38:35;;;;;;;59.77;14.97;;;;;;;;;;4990274;28;20317;-76
2021/10/20 00:41:03;;;;;;;146.97;21.47;;;;;;;;;;4989332;28;20272;-77
2021/10/20 00:43:30;;;;;;;53.50;16.03;;;;;;;;;;4986927;28;20209;-76
2021/10/20 00:45:57;;;;;;;85.57;15.50;;;;;;;;;;4988614;28;20295;-77
2021/10/20 00:48:24;;;;;;;75.30;14.30;;;;;;;;;;4988407;28;20197;-76
2021/10/20 00:50:52;;;;;;;95.53;16.03;;;;;;;;;;4988547;28;20316;-76
2021/10/20 00:53:19;;;;;;;45.30;14.77;;;;;;;;;;4989296;28;20675;-77
2021/10/20 00:55:48;;;;;;;66.67;16.23;;;;;;;;;;4988912;28;20295;-76
2021/10/20 00:58:16;;;;;;;149.80;19.40;;;;;;;;;;4989598;28;20782;-77
2021/10/20 01:00:43;;;;;;;50.73;15.10;;;;;;;;;;4989785;28;20228;-76
2021/10/20 01:03:10;;;;;;;48.97;14.73;;;;;;;;;;4989556;28;20288;-76
2021/10/20 01:05:38;;;;;;;51.10;15.37;;;;;;;;;;4987761;28;20228;-77
2021/10/20 01:08:05;;;;;;;39.53;13.60;;;;;;;;;;4988494;28;20663;-77
2021/10/20 01:10:33;;;;;;;42.63;15.17;;;;;;;;;;4989519;28;20318;-77
2021/10/20 01:13:01;;;;;;;58.07;15.70;;;;;;;;;;4987228;28;20243;-76
2021/10/20 01:15:29;;;;;;;116.20;16.87;;;;;;;;;;4989202;28;20240;-76
2021/10/20 01:17:56;;;;;;;199.27;19.03;;;;;;;;;;4986392;28;20245;-76
2021/10/20 01:20:24;;;;;;;128.07;16.57;;;;;;;;;;4983305;28;20312;-76
2021/10/20 01:22:53;;;;;;;44.07;14.63;;;;;;;;;;4982121;28;20293;-76
2021/10/20 01:25:20;;;;;;;127.23;18.00;;;;;;;;;;4988336;28;20197;-76
2021/10/20 01:27:48;;;;;;;59.07;15.83;;;;;;;;;;4988247;28;20292;-76
2021/10/20 01:30:15;;;;;;;55.90;15.67;;;;;;;;;;4987530;28;20695;-76
2021/10/20 01:32:42;;;;;;;157.17;19.57;;;;;;;;;;4985969;28;20300;-76
2021/10/20 01:35:10;;;;;;;116.73;17.43;;;;;;;;;;4988295;28;20299;-76
2021/10/20 01:37:38;;;;;;;164.57;17.83;;;;;;;;;;4984291;28;20232;-76
2021/10/20 01:40:08;;;;;;;36.13;14.60;;;;;;;;;;4986598;28;20661;-76
2021/10/20 01:42:35;;;;;;;240.40;22.30;;;;;;;;;;4986702;28;20296;-76
2021/10/20 01:45:02;;;;;;;64.80;15.17;;;;;;;;;;4979258;28;20295;-76
2021/10/20 01:47:29;;;;;;;122.50;17.23;;;;;;;;;;4978741;28;20209;-77
2021/10/20 01:49:57;;;;;;;110.20;17.33;;;;;;;;;;4987292;28;20284;-77
2021/10/20 01:52:24;;;;;;;97.63;17.47;;;;;;;;;;4981362;28;20738;-77
2021/10/20 01:54:51;;;;;;;46.37;14.00;;;;;;;;;;4979263;28;20288;-77
2021/10/20 01:57:20;;;;;;;57.07;13.83;;;;;;;;;;4982423;28;20292;-77
2021/10/20 01:59:47;;;;;;;37.43;14.93;;;;;;;;;;4983312;28;20231;-77
2021/10/20 02:02:18;;;;;;;63.60;13.77;;;;;;;;;;4982035;28;20318;-76
2021/10/20 02:04:45;;;;;;;33.83;14.10;;;;;;;;;;4982077;28;20391;-77
2021/10/20 02:07:12;;;;;;;86.03;14.90;;;;;;;;;;4984053;23;20254;-78
2021/10/20 02:09:39;;;;;;;87.20;17.20;;;;;;;;;;4946664;28;20202;-77
2021/10/20 02:12:07;;;;;;;174.47;20.50;;;;;;;;;;4965331;28;20814;-79
2021/10/20 02:14:36;;;;;;;67.50;15.90;;;;;;;;;;4954821;28;20300;-77
2021/10/20 02:17:03;;;;;;;57.70;13.93;;;;;;;;;;4951616;28;20297;-81
2021/10/20 02:19:30;;;;;;;47.70;13.53;;;;;;;;;;4954668;28;20718;-77
2021/10/20 02:21:57;;;;;;;68.67;14.27;;;;;;;;;;4950268;28;20779;-77
2021/10/20 02:24:25;;;;;;;59.20;13.47;;;;;;;;;;4950112;28;20210;-77
2021/10/20 02:26:52;;;;;;;175.83;19.53;;;;;;;;;;4952856;28;20214;-78
2021/10/20 02:29:19;;;;;;;87.40;14.73;;;;;;;;;;4951318;28;20206;-81
2021/10/20 02:31:48;;;;;;;80.33;17.20;;;;;;;;;;4953930;28;20645;-77
2021/10/20 02:34:16;;;;;;;124.07;16.33;;;;;;;;;;4950923;28;20309;-81
2021/10/20 02:36:43;;;;;;;75.80;13.50;;;15.20;99.90;;;;;;4951589;28;20308;-80
2021/10/20 02:39:10;;;;;;;210.93;19.97;;;8.90;99.90;;;;;;4952752;28;20846;-81
2021/10/20 02:41:38;;;;;;;42.13;13.70;;;8.70;99.90;;;;;;4952990;28;20312;-77
2021/10/20 02:44:06;;;;;;;59.13;14.17;;;8.80;99.90;;;;;;4952350;28;20290;-76
2021/10/20 02:46:33;;;;;;;84.47;15.07;;;8.80;99.90;;;;;;4952649;28;20297;-80
2021/10/20 02:49:02;;;;;;;34.47;11.93;;;8.80;99.90;;;;;;4952410;28;20672;-78
2021/10/20 02:51:30;;;;;;;50.10;13.70;;;8.70;99.90;;;;;;4956236;28;20328;-80
2021/10/20 02:53:57;;;;;;;73.60;15.03;;;8.70;99.90;;;;;;4952367;28;20220;-77
2021/10/20 02:56:25;;;;;;;27.10;12.70;;;8.60;99.90;;;;;;4954403;28;20201;-77
2021/10/20 02:58:52;;;;;;;40.00;13.10;;;8.60;99.90;;;;;;4951893;28;20349;-80
2021/10/20 03:01:19;;;;;;;39.37;13.37;;;8.50;99.90;;;;;;4954109;28;20564;-79
2021/10/20 03:03:46;;;;;;;31.03;11.77;;;8.50;99.90;;;;;;4952211;28;20284;-77
2021/10/20 03:06:15;;;;;;;42.83;13.07;;;8.50;99.90;;;;;;4954670;28;20210;-78
2021/10/20 03:08:43;;;;;;;32.43;13.57;;;8.50;99.90;;;;;;4952217;28;20304;-77
2021/10/20 03:11:10;;;;;;;25.43;13.27;;;8.50;99.90;;;;;;4952770;28;20230;-78
2021/10/20 03:13:36;;;;;;;27.47;13.03;;;8.60;99.90;;;;;;4963997;28;20249;-78
2021/10/20 03:16:04;;;;;;;20.57;11.70;;;8.60;99.90;;;;;;4968479;28;20209;-77
2021/10/20 03:18:31;;;;;;;27.57;13.37;;;8.70;99.90;;;;;;4969671;28;20292;-78
2021/10/20 03:20:58;;;;;;;25.63;12.70;;;8.80;99.90;;;;;;4967053;28;20292;-79
2021/10/20 03:23:26;;;;;;;22.50;11.87;;;8.80;99.90;;;;;;4967375;28;20206;-78
2021/10/20 03:25:53;;;;;;;22.87;10.93;;;8.80;99.90;;;;;;4963103;28;20301;-78
2021/10/20 03:28:20;;;;;;;21.03;11.37;;;8.80;99.90;;;;;;4958050;28;20213;-79
2021/10/20 03:31:02;;;;;;;25.17;12.20;;;8.90;99.90;;;;;;4955161;28;20221;-77
2021/10/20 03:33:29;;;;;;;27.03;11.90;;;8.90;99.90;;;;;;4958602;28;20284;-78
2021/10/20 03:35:57;;;;;;;21.17;12.40;;;;;;;;;;4965977;28;20285;-78
2021/10/20 03:38:24;;;;;;;17.87;10.47;;;;;;;;;;4967213;28;20285;-79
2021/10/20 03:40:52;;;;;;;25.87;13.83;;;;;;;;;;4969424;28;20312;-81
2021/10/20 03:43:19;;;;;;;22.57;11.47;;;;;;;;;;4969891;28;20292;-78
2021/10/20 03:45:47;;;;;;;22.77;12.10;;;;;;;;;;4970412;28;20212;-77
2021/10/20 03:48:14;;;;;;;18.83;11.57;;;;;;;;;;4968533;28;20296;-78
2021/10/20 03:50:41;;;;;;;23.07;11.40;;;;;;;;;;4972105;28;20546;-78
2021/10/20 03:53:09;;;;;;;20.17;11.43;;;;;;;;;;4972174;28;20216;-78
2021/10/20 03:55:36;;;;;;;21.83;12.37;;;;;;;;;;4969365;28;20250;-77
2021/10/20 03:58:05;;;;;;;25.40;11.27;;;;;;;;;;4991727;28;20194;-76
2021/10/20 04:00:32;;;;;;;24.83;12.27;;;;;;;;;;4992669;28;20238;-77
2021/10/20 04:02:59;;;;;;;24.17;13.73;;;;;;;;;;4970994;28;20229;-76
2021/10/20 04:05:27;;;;;;;24.27;12.50;;;;;;;;;;4972733;28;20297;-78
2021/10/20 04:07:54;;;;;;;17.47;10.63;;;;;;;;;;4969525;28;20297;-78
2021/10/20 04:10:22;;;;;;;26.80;12.33;;;;;;;;;;4969942;28;20224;-78
2021/10/20 04:12:50;;;;;;;21.77;11.20;;;;;;;;;;4971564;28;20237;-78
2021/10/20 04:15:19;;;;;;;20.60;10.97;;;;;;;;;;4971416;28;20288;-77
2021/10/20 04:17:46;;;;;;;24.33;11.23;;;;;;;;;;4971396;28;20281;-77
2021/10/20 04:20:15;;;;;;;21.63;11.87;;;;;;;;;;4972218;28;20249;-78
2021/10/20 04:22:42;;;;;;;22.80;12.30;;;;;;;;;;4971469;28;20484;-78
2021/10/20 04:25:10;;;;;;;19.47;11.63;;;;;;;;;;4972092;28;20209;-78
2021/10/20 04:27:38;;;;;;;19.80;10.50;;;;;;;;;;4969281;28;20264;-77
2021/10/20 04:30:05;;;;;;;22.93;11.17;;;;;;;;;;4970720;28;20301;-77
2021/10/20 04:32:34;;;;;;;20.63;11.57;;;;;;;;;;4969699;28;20288;-77
2021/10/20 04:35:01;;;;;;;23.60;12.17;;;;;;;;;;4970393;28;20202;-77
2021/10/20 04:37:28;;;;;;;23.20;10.40;;;;;;;;;;4972159;28;20237;-76
2021/10/20 04:39:57;;;;;;;16.83;9.37;;;;;;;;;;4973351;28;20312;-78
2021/10/20 04:42:24;;;;;;;20.77;11.13;;;;;;;;;;4969461;28;20656;-78
2021/10/20 04:44:52;;;;;;;18.87;10.80;;;;;;;;;;4970646;28;20328;-78
2021/10/20 04:47:19;;;;;;;23.00;10.93;;;;;;;;;;4970060;28;20304;-77
2021/10/20 04:49:48;;;;;;;18.90;10.47;;;;;;;;;;4968131;28;20265;-76
2021/10/20 04:52:15;;;;;;;20.33;10.20;;;;;;;;;;4970726;28;20260;-77
2021/10/20 04:54:42;;;;;;;18.40;11.07;;;;;;;;;;4969795;28;20297;-79
2021/10/20 04:57:11;;;;;;;21.73;10.80;;;;;;;;;;4969950;28;20300;-78
2021/10/20 04:59:38;;;;;;;18.80;10.53;;;;;;;;;;4971105;28;20668;-76
2021/10/20 05:02:05;;;;;;;26.87;10.90;;;;;;;;;;4968747;28;20312;-76
2021/10/20 05:04:33;;;;;;;20.10;11.20;;;;;;;;;;4982625;28;20232;-76
2021/10/20 05:07:01;;;;;;;17.23;11.13;;;;;;;;;;4989959;28;20205;-75
2021/10/20 05:09:28;;;;;;;19.00;10.43;;;;;;;;;;4975820;28;20278;-78
2021/10/20 05:11:56;;;;;;;20.70;9.43;;;;;;;;;;4970583;28;20352;-76
2021/10/20 05:14:23;;;;;;;19.57;10.90;;;;;;;;;;4973279;28;20229;-78
2021/10/20 05:16:50;;;;;;;23.40;11.27;;;;;;;;;;4970167;28;20229;-78
2021/10/20 05:19:17;;;;;;;22.50;12.17;;;;;;;;;;4971040;28;20284;-77
2021/10/20 05:21:44;;;;;;;24.17;12.73;;;;;;;;;;4971389;28;20312;-78
2021/10/20 05:24:13;;;;;;;20.00;11.07;;;;;;;;;;4972847;28;20202;-77
2021/10/20 05:26:40;;;;;;;23.73;10.77;;;;;;;;;;4971081;28;20292;-78
2021/10/20 05:29:08;;;;;;;24.33;10.73;;;;;;;;;;4971840;28;20292;-78
2021/10/20 05:31:35;;;;;;;20.00;11.63;;;;;;;;;;4970547;28;20257;-79
2021/10/20 05:34:02;;;;;;;19.57;11.17;;;;;;;;;;4969935;28;20297;-77
2021/10/20 05:36:29;;;;;;;21.47;11.07;;;;;;;;;;4972655;28;20296;-79
2021/10/20 05:38:56;;;;;;;20.47;11.47;;;;;;;;;;4970018;28;20748;-78
2021/10/20 05:41:25;;;;;;;18.83;10.73;;;;;;;;;;4970880;28;20594;-79
2021/10/20 05:43:52;;;;;;;23.93;12.20;;;;;;;;;;4969316;28;20570;-79
2021/10/20 05:46:19;;;;;;;22.17;12.33;;;;;;;;;;4970505;28;20309;-79
2021/10/20 05:48:46;;;;;;;22.90;12.93;;;;;;;;;;4968965;28;20241;-74
2021/10/20 05:51:14;;;;;;;20.63;11.13;;;;;;;;;;4970736;28;20260;-79
2021/10/20 05:53:41;;;;;;;26.10;12.00;;;;;;;;;;4969626;28;20328;-78
2021/10/20 05:56:08;;;;;;;22.00;12.00;;;;;;;;;;4968879;28;20292;-77
2021/10/20 05:58:37;;;;;;;24.23;11.27;;;;;;;;;;4967341;28;20237;-75
2021/10/20 06:01:04;;;;;;;25.50;11.67;;;;;;;;;;4967949;28;20304;-77
2021/10/20 06:03:31;;;;;;;26.23;12.83;;;;;;;;;;4966729;28;20252;-74
2021/10/20 06:05:58;;;;;;;37.77;20.60;;;;;;;;;;4967633;28;20635;-77
2021/10/20 06:08:25;;;;;;;26.27;15.97;;;;;;;;;;4969214;28;20210;-77
2021/10/20 06:10:52;;;;;;;22.63;12.33;;;;;;;;;;4968542;28;20276;-77
2021/10/20 06:13:20;;;;;;;25.57;15.07;;;;;;;;;;4982279;28;20201;-77
2021/10/20 06:15:48;;;;;;;32.60;17.57;;;;;;;;;;4979762;28;20323;-78
2021/10/20 06:18:15;;;;;;;26.57;13.47;;;;;;;;;;4966319;28;20688;-75
2021/10/20 06:20:43;;;;;;;20.57;12.17;;;;;;;;;;4968621;28;20313;-78
2021/10/20 06:23:10;;;;;;;23.13;11.33;;;;;;;;;;4969395;28;20285;-77
2021/10/20 06:25:37;;;;;;;21.23;11.53;;;;;;;;;;4968433;28;20244;-79
2021/10/20 06:28:04;;;;;;;25.10;12.00;;;;;;;;;;4968479;28;20313;-78
2021/10/20 06:30:32;;;;;;;22.23;10.43;;;;;;;;;;4967255;28;20344;-77
2021/10/20 06:33:00;;;;;;;21.37;10.80;;;;;;;;;;4968918;28;20744;-76
2021/10/20 06:35:27;;;;;;;18.97;11.43;;;;;;;;;;4971029;28;20241;-79
2021/10/20 06:37:55;;;;;;;18.80;11.37;;;;;;;;;;4968792;28;20925;-78
2021/10/20 06:40:23;;;;;;;16.40;10.03;;;;;;;;;;4969795;28;20256;-77
2021/10/20 06:42:50;;;;;;;18.80;11.63;;;;;;;;;;4970323;28;20300;-76
2021/10/20 06:45:18;;;;;;;19.43;11.33;;;;;;;;;;4969271;28;20715;-78
2021/10/20 06:47:45;;;;;;;25.17;11.40;;;;;;;;;;4969365;28;20256;-78
2021/10/20 06:50:13;;;;;;;19.50;10.80;;;;;;;;;;4969572;28;20368;-78
2021/10/20 06:52:41;;;;;;;22.97;12.50;;;;;;;;;;4967623;28;20272;-77
2021/10/20 06:55:09;;;;;;;24.47;13.33;;;;;;;;;;4967967;28;20245;-77
2021/10/20 06:57:36;;;;;;;24.43;12.03;;;;;;;;;;4969121;28;20281;-78
2021/10/20 07:00:04;;;;;;;19.17;9.60;;;;;;;;;;4968357;28;20248;-76
2021/10/20 07:02:31;;;;;;;24.13;11.80;;;;;;;;;;4966774;28;20406;-77
2021/10/20 07:04:59;;;;;;;28.80;11.80;;;;;;;;;;4967073;28;20209;-78
2021/10/20 07:07:29;;;;;;;19.73;11.23;;;;;;;;;;4962794;28;20217;-76
2021/10/20 07:09:56;;;;;;;26.60;11.87;;;;;;;;;;4964944;28;20209;-75
2021/10/20 07:12:23;;;;;;;21.60;11.60;;;;;;;;;;4966576;28;20255;-77
2021/10/20 07:14:51;;;;;;;23.00;10.97;;;;;;;;;;4964622;28;20280;-77
2021/10/20 07:17:18;;;;;;;21.63;10.97;;;;;;;;;;4966178;28;20233;-75
2021/10/20 07:19:45;;;;;;;22.63;10.80;;;;;;;;;;4975692;28;20236;-76
2021/10/20 07:22:12;;;;;;;25.33;10.67;;;;;;;;;;4983651;28;20320;-76
2021/10/20 07:24:41;;;;;;;23.80;10.73;;;;;;;;;;4968935;28;20272;-75
2021/10/20 07:27:08;;;;;;;18.20;10.40;;;;;;;;;;4956820;28;20205;-78
2021/10/20 07:29:35;;;;;;;15.07;8.00;;;;;;;;;;4966935;28;20209;-76
2021/10/20 07:32:04;;;;;;;20.13;8.37;;;;;;;;;;4965250;28;20218;-76
2021/10/20 07:34:31;;;;;;;16.57;9.23;;;;;;;;;;4966388;28;20740;-78
2021/10/20 07:36:58;;;;;;;18.53;9.27;;;;;;;;;;4969419;28;20208;-75
2021/10/20 07:39:25;;;;;;;20.83;9.57;;;;;;;;;;4967945;28;20296;-78
2021/10/20 07:41:54;;;;;;;15.30;8.30;;;;;;;;;;4964371;28;20316;-78
2021/10/20 07:44:21;;;;;;;14.50;6.43;;;;;;;;;;4968451;28;20301;-79
2021/10/20 07:46:48;;;;;;;12.73;6.97;;;;;;;;;;4968540;28;20205;-80
2021/10/20 07:49:15;;;;;;;13.03;6.70;;;;;;;;;;4968940;28;20232;-80
2021/10/20 07:51:43;;;;;;;12.83;6.40;;;;;;;;;;4968695;28;20228;-78
2021/10/20 07:54:10;;;;;;;10.73;6.27;;;;;;;;;;4967345;28;20268;-77
2021/10/20 07:56:42;;;;;;;11.10;6.23;;;;;;;;;;4967459;28;20285;-76
2021/10/20 07:59:14;;;;;;;10.57;5.73;;;;;;;;;;4955678;28;20213;-76
2021/10/20 08:01:41;;;;;;;11.33;5.70;;;;;;;;;;4962760;28;20229;-79
2021/10/20 08:04:08;;;;;;;8.93;5.87;;;;;;;;;;4961605;28;20292;-76
2021/10/20 08:06:36;;;;;;;10.03;5.43;;;;;;;;;;4956795;28;20211;-77
2021/10/20 08:09:03;;;;;;;11.20;5.97;;;;;;;;;;4968112;28;20226;-76
2021/10/20 08:11:30;;;;;;;10.30;4.90;;;;;;;;;;4973246;28;20308;-78
2021/10/20 08:13:57;;;;;;;9.33;5.13;;;;;;;;;;4972428;28;20209;-77
2021/10/20 08:16:26;;;;;;;9.93;5.87;;;;;;;;;;4974374;28;20252;-78
2021/10/20 08:18:53;;;;;;;12.00;5.63;;;;;;;;;;4971828;28;20226;-75
2021/10/20 08:21:20;;;;;;;9.03;5.80;;;;;;;;;;4973526;28;20230;-78
2021/10/20 08:23:47;;;;;;;11.53;6.17;;;;;;;;;;4973840;28;20245;-74
2021/10/20 08:26:15;;;;;;;10.80;6.03;;;;;;;;;;4977272;28;20205;-75
2021/10/20 08:28:43;;;;;;;9.97;6.20;;;;;;;;;;4984391;28;20218;-75
2021/10/20 08:31:10;;;;;;;16.00;6.73;;;;;;;;;;4977137;28;20230;-78
2021/10/20 08:33:38;;;;;;;16.10;7.43;;;;;;;;;;4972525;28;20273;-77
2021/10/20 08:36:06;;;;;;;13.47;6.20;;;;;;;;;;4974174;28;20297;-76
2021/10/20 08:38:33;;;;;;;14.60;6.87;;;;;;;;;;4972932;28;20216;-76
2021/10/20 08:41:00;;;;;;;11.53;6.40;;;;;;;;;;4970403;28;20226;-77
2021/10/20 08:43:29;;;;;;;13.80;6.87;;;;;;;;;;4966698;28;20327;-78
2021/10/20 08:45:56;;;;;;;12.27;6.90;;;;;;;;;;4974075;28;20201;-77
2021/10/20 08:48:24;;;;;;;13.80;6.47;;;;;;;;;;4971752;28;20225;-78
2021/10/20 08:50:53;;;;;;;12.47;6.57;;;;;;;;;;4971553;28;20296;-78
2021/10/20 08:53:21;;;;;;;18.57;6.57;;;;;;;;;;4972037;28;20301;-78
2021/10/20 08:55:49;;;;;;;14.80;6.57;;;;;;;;;;4972567;28;20256;-76
2021/10/20 08:58:16;;;;;;;11.27;6.90;;;;;;;;;;4972870;28;20241;-76
2021/10/20 09:00:44;;;;;;;11.80;6.53;;;;;;;;;;4971761;28;20257;-78
2021/10/20 09:03:12;;;;;;;11.50;6.30;;;;;;;;;;4971336;28;20296;-78
2021/10/20 09:05:39;;;;;;;10.00;5.90;;;;;;;;;;4971350;28;20925;-78
2021/10/20 09:08:08;;;;;;;10.50;6.57;;;;;;;;;;4971265;28;20738;-78
2021/10/20 09:10:35;;;;;;;12.43;6.23;;;;;;;;;;4972629;28;20256;-78
2021/10/20 09:13:03;;;;;;;11.27;6.90;;;;;;;;;;4970998;28;20209;-75
2021/10/20 09:15:32;;;;;;;11.27;6.77;;;;;;;;;;4972360;28;20213;-78
2021/10/20 09:18:00;;;;;;;13.13;7.10;;;;;;;;;;4971068;28;20265;-77
2021/10/20 09:20:28;;;;;;;9.93;6.67;;;;;;;;;;4969211;28;20613;-75
2021/10/20 09:23:00;;;;;;;13.20;6.80;;;;;;;;;;4970919;28;20320;-77
2021/10/20 09:25:33;;;;;;;11.97;7.20;;;;;;;;;;4971255;28;20257;-78
2021/10/20 09:28:00;;;;;;;11.50;7.07;;;;;;;;;;4971492;28;20335;-76
2021/10/20 09:30:28;;;;;;;11.70;7.10;;;;;;;;;;4972296;28;20284;-75
2021/10/20 09:32:57;;;;;;;11.00;6.60;;;;;;;;;;4975871;28;20241;-74
2021/10/20 09:35:24;;;;;;;10.93;6.60;;;;;;;;;;4979863;28;20217;-75
2021/10/20 09:37:58;;;;;;;12.40;6.90;;;;;;;;;;4972736;28;20650;-77
2021/10/20 09:40:25;;;;;;;10.60;6.40;;;;;;;;;;4970912;28;20233;-78
2021/10/20 09:42:54;;;;;;;14.40;6.70;;;;;;;;;;4970949;28;20261;-78
2021/10/20 09:45:22;;;;;;;14.93;5.90;;;;;;;;;;4971252;28;20206;-76
2021/10/20 09:47:50;;;;;;;11.03;6.63;;;;;;;;;;4973152;28;20293;-77
2021/10/20 09:50:18;;;;;;;11.50;6.63;;;;;;;;;;4971411;28;20570;-77
2021/10/20 09:52:46;;;;;;;11.23;6.87;;;;;;;;;;4972732;28;20224;-78
2021/10/20 09:55:17;;;;;;;12.60;6.43;;;;;;;;;;4969482;28;20398;-76
2021/10/20 09:57:45;;;;;;;15.73;6.60;;;;;;;;;;4965337;28;20210;-79
2021/10/20 10:00:14;;;;;;;12.60;6.70;;;;;;;;;;4961038;28;20300;-77
2021/10/20 10:02:41;;;;;;;11.30;6.57;;;;;;;;;;4964580;28;20788;-78
2021/10/20 10:05:09;;;;;;;11.80;7.10;;;;;;;;;;4968413;28;20743;-77
2021/10/20 10:07:36;;;;;;;10.90;6.70;;;;;;;;;;4970193;28;20217;-77
2021/10/20 10:10:04;;;;;;;14.03;7.63;;;;;;;;;;4968631;28;20675;-79
2021/10/20 10:12:59;;;;;;;18.47;8.10;;;;;;;;;;4971077;28;20213;-77
2021/10/20 10:15:29;;;;;;;12.70;7.57;;;;;;;;;;4972323;28;20602;-77
2021/10/20 10:17:58;;;;;;;13.53;7.43;;;;;;;;;;4972634;28;20248;-79
2021/10/20 10:20:28;;;;;;;14.40;7.70;;;;;;;;;;4971161;28;20763;-79
2021/10/20 10:22:56;;;;;;;12.93;7.10;;;;;;;;;;4971556;28;20312;-77
2021/10/20 10:25:32;;;;;;;15.33;7.57;;;;;;;;;;4970313;28;20245;-78
2021/10/20 10:28:09;;;;;;;14.27;7.93;;;;;;;;;;4971276;28;20272;-75
2021/10/20 10:30:48;;;;;;;12.17;7.07;;;;;;;;;;4970914;28;20256;-77
2021/10/20 10:33:20;;;;;;;10.87;7.27;;;;;;;;;;4968410;28;20294;-75
2021/10/20 10:35:47;;;;;;;10.67;7.13;;;;;;;;;;4970657;28;20229;-77
2021/10/20 10:38:15;;;;;;;15.17;7.53;;;;;;;;;;4971468;28;20236;-77
2021/10/20 10:40:42;;;;;;;12.60;7.27;;;;;;;;;;4979345;28;20280;-76
2021/10/20 10:43:12;;;;;;;16.03;6.83;;;;;;;;;;4976361;28;20264;-75
2021/10/20 10:45:39;;;;;;;11.23;6.50;;;;;;;;;;4969560;28;20241;-77
2021/10/20 10:48:08;;;;;;;13.07;7.13;;;;;;;;;;4970089;28;20233;-78
2021/10/20 10:50:39;;;;;;;9.27;6.47;;;;;;;;;;4969685;28;20856;-78
2021/10/20 10:53:07;;;;;;;10.27;6.23;;;;;;;;;;4969829;28;20213;-79
2021/10/20 10:55:34;;;;;;;12.93;6.83;;;;;;;;;;4970207;28;20704;-78
2021/10/20 10:58:02;;;;;;;10.13;6.47;;;;;;;;;;4971147;28;20312;-77
2021/10/20 11:00:33;;;;;;;12.10;6.37;;;;;;;;;;4968897;28;20780;-78
2021/10/20 11:06:05;;;;;;;11.30;6.37;;;;;;;;;;4968066;28;20193;-78
2021/10/20 11:08:32;;;;;;;10.50;5.93;;;;;;;;;;4969706;28;20314;-78
2021/10/20 11:11:00;;;;;;;10.07;5.93;;;;;;;;;;4968884;28;20320;-74
2021/10/20 11:13:27;;;;;;;10.00;5.40;;;;;;;;;;4969073;28;20672;-78
2021/10/20 11:15:54;;;;;;;8.37;5.63;;;;;;;;;;4969760;28;20301;-77
2021/10/20 11:18:24;;;;;;;7.63;5.10;;;;;;;;;;4969122;28;20292;-78
2021/10/20 11:20:51;;;;;;;10.53;4.90;;;;;;;;;;4968896;28;20312;-78
2021/10/20 11:23:21;;;;;;;7.87;5.40;;;;;;;;;;4969403;28;20786;-77
2021/10/20 11:25:49;;;;;;;8.07;5.17;;;;;;;;;;4968826;28;20300;-75
2021/10/20 11:28:16;;;;;;;16.13;6.20;;;;;;;;;;4970940;28;20308;-76
2021/10/20 11:30:43;;;;;;;11.00;5.90;;;;;;;;;;4969008;28;20288;-77
2021/10/20 11:33:12;;;;;;;13.63;6.37;;;;;;;;;;4969585;28;20273;-76
2021/10/20 11:35:39;;;;;;;10.20;5.93;;;;;;;;;;4971414;28;20240;-78
2021/10/20 11:38:08;;;;;;;11.90;6.00;;;;;;;;;;4973716;28;20318;-76
2021/10/20 11:40:37;;;;;;;9.80;6.13;;;;;;;;;;4974013;28;20241;-77
2021/10/20 11:43:05;;;;;;;9.37;5.70;;;;;;;;;;4973759;28;20320;-76
2021/10/20 11:45:33;;;;;;;8.77;5.60;;;;;;;;;;4973739;28;20265;-75
2021/10/20 11:48:04;;;;;;;14.03;5.30;;;;;;;;;;4980997;28;20208;-76
2021/10/20 11:50:32;;;;;;;11.57;5.47;;;;;;;;;;4978690;28;20261;-77
2021/10/20 11:53:04;;;;;;;10.07;5.50;;;;;;;;;;4973535;28;20276;-76
2021/10/20 11:55:31;;;;;;;11.90;6.10;;;;;;;;;;4973560;28;20249;-78
2021/10/20 11:58:00;;;;;;;8.77;5.57;;;;;;;;;;4972501;28;20296;-78
2021/10/20 12:00:27;;;;;;;10.43;5.53;;;;;;;;;;4972023;28;20257;-75
2021/10/20 12:02:54;;;;;;;11.33;6.20;;;;;;;;;;4972724;28;20256;-76
2021/10/20 12:05:22;;;;;;;8.83;5.73;;;;;;;;;;4973542;28;20774;-78
2021/10/20 12:07:49;;;;;;;9.47;5.73;;;;;;;;;;4971907;28;20266;-77
2021/10/20 12:10:18;;;;;;;11.47;5.53;;;;;;;;;;4972710;28;20225;-78
2021/10/20 12:12:46;;;;;;;10.13;6.50;;;;;;;;;;4971993;28;20292;-75
2021/10/20 12:15:19;;;;;;;10.13;6.33;;;;;;;;;;4972764;28;20669;-77
2021/10/20 12:17:47;;;;;;;10.83;6.07;;;;;;;;;;4972489;28;20213;-78
2021/10/20 12:20:15;;;;;;;12.67;6.43;;;;;;;;;;4971936;28;20238;-76
2021/10/20 12:22:42;;;;;;;12.23;6.13;;;;;;;;;;4972810;28;20316;-78
2021/10/20 12:25:10;;;;;;;9.60;5.70;;;;;;;;;;4972704;28;20241;-78
2021/10/20 12:27:39;;;;;;;10.80;6.93;;;;;;;;;;4973636;28;20228;-78
2021/10/20 12:30:08;;;;;;;10.13;6.40;;;;;;;;;;4969873;28;21030;-78
2021/10/20 12:32:39;;;;;;;9.63;6.20;;;;;;;;;;4970159;28;20205;-84
2021/10/20 12:35:08;;;;;;;9.83;6.27;;;;;;;;;;4969851;28;20214;-76
2021/10/20 12:37:36;;;;;;;12.60;7.30;;;;;;;;;;4970379;28;20213;-77
2021/10/20 12:40:11;;;;;;;16.00;7.53;;;;;;;;;;4968749;28;20218;-76
2021/10/20 12:42:45;;;;;;;12.40;6.47;;;;;;;;;;4969418;28;20304;-77
2021/10/20 12:45:13;;;;;;;9.27;6.80;;;;;;;;;;4970029;28;20208;-76
2021/10/20 12:47:46;;;;;;;10.13;6.67;;;;;;;;;;4970187;28;20499;-77
2021/10/20 12:50:14;;;;;;;10.17;6.00;;;;;;;;;;4969994;28;20232;-77
2021/10/20 12:52:42;;;;;;;9.30;5.60;;;;;;;;;;4969510;28;20202;-77
2021/10/20 12:55:10;;;;;;;10.93;5.70;;;;;;;;;;4980991;28;20206;-77
2021/10/20 12:57:38;;;;;;;10.03;5.57;;;;;;;;;;4975027;28;20300;-76
2021/10/20 13:00:16;;;;;;;10.70;5.63;;;;;;;;;;4968307;28;20296;-77
2021/10/20 13:02:45;;;;;;;8.70;5.77;;;;;;;;;;4968304;28;20307;-76
2021/10/20 13:05:13;;;;;;;9.83;6.03;;;;;;;;;;4967771;28;20210;-78
2021/10/20 13:07:40;;;;;;;13.60;6.00;;;;;;;;;;4973159;28;20213;-79
2021/10/20 13:10:09;;;;;;;11.00;6.40;;;;;;;;;;4973202;28;20297;-79
2021/10/20 13:12:39;;;;;;;8.03;5.20;;;;;;;;;;4972730;28;20316;-80
2021/10/20 13:15:07;;;;;;;10.60;6.10;;;;;;;;;;4972123;28;20300;-80
2021/10/20 13:17:38;;;;;;;9.23;5.50;;;;;;;;;;4971983;28;20703;-80
2021/10/20 13:20:08;;;;;;;13.33;5.53;;;;;;;;;;4967620;28;20204;-81
2021/10/20 13:22:35;;;;;;;12.50;6.10;;;;;;;;;;4974864;28;20284;-80
2021/10/20 13:25:02;;;;;;;9.33;6.10;;;;;;;;;;4977189;28;20241;-81
2021/10/20 13:27:29;;;;;;;11.27;5.33;;;;;;;;;;4975370;28;20210;-81
2021/10/20 13:29:57;;;;;;;7.13;5.20;;;;;;;;;;4974934;28;20206;-81
2021/10/20 13:32:24;;;;;;;9.53;6.03;;;;;;;;;;4974065;28;20297;-81
2021/10/20 13:34:51;;;;;;;12.73;6.63;;;;;;;;;;4972598;28;20244;-82
2021/10/20 13:37:20;;;;;;;10.70;7.00;;;;;;;;;;4972410;28;20214;-82
2021/10/20 13:39:47;;;;;;;10.57;6.27;;;;;;;;;;4970519;28;20346;-81
2021/10/20 13:42:14;;;;;;;8.03;6.10;;;;;;;;;;4978333;28;20700;-81
2021/10/20 13:44:41;;;;;;;8.60;5.87;;;;;;;;;;4980490;28;20647;-82
2021/10/20 13:47:09;;;;;;;12.87;6.67;;;;;;;;;;4981167;28;20209;-81
2021/10/20 13:49:37;;;;;;;9.47;6.00;;;;;;;;;;4980151;28;20234;-82
2021/10/20 13:52:04;;;;;;;8.43;5.37;;;;;;;;;;4982195;28;20240;-81
2021/10/20 13:54:33;;;;;;;8.60;5.70;;;;;;;;;;4982643;28;20245;-81
2021/10/20 13:57:01;;;;;;;7.80;5.40;;;;;;;;;;4981776;28;20237;-85
2021/10/20 13:59:29;;;;;;;8.17;4.73;;;;;;;;;;4981911;28;20250;-80
2021/10/20 14:01:56;;;;;;;10.17;4.90;;;;;;;;;;4983474;28;20256;-79
2021/10/20 14:04:24;;;;;;;6.40;4.57;;;;;;;;;;4982554;28;20268;-81
2021/10/20 14:06:53;;;;;;;11.37;4.97;;;;;;;;;;5056382;23;20244;-80
2021/10/20 14:09:21;;;;;;;6.83;4.10;;;;;;;;;;4980422;28;20264;-79
2021/10/20 14:11:51;;;;;;;5.43;3.90;;;;;;;;;;4980902;28;20665;-79
2021/10/20 14:14:18;;;;;;;8.33;4.90;;;;;;;;;;4978539;28;20205;-80
2021/10/20 14:16:45;;;;;;;7.80;4.20;;;;;;;;;;4980610;28;20631;-80
2021/10/20 14:19:12;;;;;;;8.43;5.33;;;;;;;;;;4977703;28;20244;-80
2021/10/20 14:21:40;;;;;;;8.80;5.00;;;;;;;;;;4979606;28;20261;-79
2021/10/20 14:24:07;;;;;;;5.33;3.80;;;;;;;;;;4978399;28;20280;-79